Time;durP1;ratioP1;P1;durP2;ratioP2;P2;SDS_P1;SDS_P2;PMS_P1;PMS_P2;Temp;Humidity;BMP_temperature;BMP_pressure;BME280_temperature;BME280_humidity;BME280_pressure;Samples;Min_cycle;Max_cycle;Signal;HPM_P1;HPM_P2
2021/12/26 00:00:32;;;;;;;2.27;1.30;;;-1.20;99.90;;;;;;5116021;27;20252;-55
2021/12/26 00:03:00;;;;;;;4.57;1.67;;;-1.20;99.90;;;;;;5114856;27;20234;-57
2021/12/26 00:05:28;;;;;;;3.57;1.37;;;-1.20;99.90;;;;;;5115196;27;20571;-54
2021/12/26 00:07:56;;;;;;;1.90;1.17;;;-1.10;99.90;;;;;;5116031;27;20691;-56
2021/12/26 00:10:25;;;;;;;1.43;1.10;;;-1.20;99.90;;;;;;5116050;27;20247;-56
2021/12/26 00:12:53;;;;;;;2.50;1.07;;;-1.10;99.90;;;;;;5115139;27;20203;-56
2021/12/26 00:15:20;;;;;;;3.47;1.67;;;-1.10;99.90;;;;;;5115100;27;20304;-56
2021/12/26 00:17:47;;;;;;;5.03;1.37;;;-1.00;99.90;;;;;;5114290;27;20297;-56
2021/12/26 00:20:15;;;;;;;2.57;1.30;;;-1.00;99.90;;;;;;5114342;27;20230;-54
2021/12/26 00:22:44;;;;;;;1.87;1.13;;;-1.00;99.90;;;;;;5116672;27;20336;-55
2021/12/26 00:25:12;;;;;;;4.07;1.40;;;-1.00;99.90;;;;;;5116101;27;20222;-56
2021/12/26 00:27:40;;;;;;;2.80;1.50;;;-1.10;99.90;;;;;;5095880;27;20242;-54
2021/12/26 00:30:11;;;;;;;3.50;1.60;;;-1.00;99.90;;;;;;5117577;27;20205;-55
2021/12/26 00:32:39;;;;;;;1.73;1.23;;;-1.10;99.90;;;;;;5117806;27;20222;-53
2021/12/26 00:35:09;;;;;;;2.30;1.27;;;-1.00;99.90;;;;;;5097125;27;20224;-55
2021/12/26 00:37:36;;;;;;;3.53;1.47;;;-1.00;99.90;;;;;;5117480;27;20362;-55
2021/12/26 00:40:04;;;;;;;2.30;1.33;;;-1.00;99.90;;;;;;5117233;27;20221;-56
2021/12/26 00:42:31;;;;;;;2.23;1.27;;;-0.90;99.90;;;;;;5119122;27;20577;-55
2021/12/26 00:44:58;;;;;;;3.90;1.57;;;-0.90;99.90;;;;;;5113714;27;20301;-55
2021/12/26 00:47:29;;;;;;;2.83;1.37;;;-0.90;99.90;;;;;;5107022;27;20722;-54
2021/12/26 00:50:00;;;;;;;1.50;1.10;;;-0.90;99.90;;;;;;5095368;28;20230;-61
2021/12/26 00:52:27;;;;;;;2.93;1.50;;;-0.80;99.90;;;;;;5079965;28;20227;-57
2021/12/26 00:54:54;;;;;;;3.40;1.30;;;-0.90;99.90;;;;;;5077872;28;20760;-56
2021/12/26 00:57:21;;;;;;;2.20;1.10;;;-0.90;99.90;;;;;;5098537;28;20285;-55
2021/12/26 00:59:48;;;;;;;2.17;1.20;;;-0.90;99.90;;;;;;5095733;28;20332;-54
2021/12/26 01:02:15;;;;;;;2.80;1.50;;;-1.00;99.90;;;;;;5097797;28;20213;-54
2021/12/26 01:04:42;;;;;;;2.40;1.37;;;-1.00;99.90;;;;;;5095551;28;20256;-54
2021/12/26 01:07:22;;;;;;;1.90;1.40;;;-1.00;99.90;;;;;;5095075;28;20242;-55
2021/12/26 01:09:52;;;;;;;1.23;1.00;;;-1.00;99.90;;;;;;5095245;27;20697;-54
2021/12/26 01:12:19;;;;;;;3.37;1.30;;;-1.00;99.90;;;;;;5097270;28;20213;-55
2021/12/26 01:14:52;;;;;;;2.00;1.33;;;-1.00;99.90;;;;;;5094252;28;20244;-55
2021/12/26 01:17:22;;;;;;;4.53;1.70;;;-1.00;99.90;;;;;;5095220;27;20195;-55
2021/12/26 01:19:52;;;;;;;2.90;1.40;;;-1.00;99.90;;;;;;5093964;28;20203;-54
2021/12/26 01:22:20;;;;;;;2.13;1.47;;;-1.00;99.90;;;;;;5091648;28;20347;-54
2021/12/26 01:24:55;;;;;;;3.33;1.50;;;-1.00;99.90;;;;;;5097925;28;20210;-55
2021/12/26 01:27:27;;;;;;;3.20;1.23;;;-0.90;99.90;;;;;;5097542;28;20209;-54
2021/12/26 01:29:54;;;;;;;2.63;1.43;;;-0.90;99.90;;;;;;5096603;28;20187;-54
2021/12/26 01:32:21;;;;;;;2.83;1.80;;;-0.80;99.90;;;;;;5095834;28;20312;-56
2021/12/26 01:34:49;;;;;;;2.20;1.27;;;-0.80;99.90;;;;;;5093627;28;20281;-54
2021/12/26 01:37:16;;;;;;;1.40;1.10;;;-0.80;99.90;;;;;;5074751;28;20235;-56
2021/12/26 01:39:43;;;;;;;3.27;1.60;;;-1.00;99.90;;;;;;5110598;27;20243;-54
2021/12/26 01:42:10;;;;;;;2.93;1.80;;;-0.90;99.90;;;;;;5095803;28;20195;-54
2021/12/26 01:44:41;;;;;;;3.47;1.57;;;-0.90;99.90;;;;;;5098498;27;20226;-55
2021/12/26 01:47:08;;;;;;;3.37;1.50;;;-0.80;99.90;;;;;;5099599;27;20226;-55
2021/12/26 01:49:35;;;;;;;2.20;1.70;;;-1.00;99.90;;;;;;5097525;28;20320;-57
2021/12/26 01:52:05;;;;;;;2.10;1.40;;;-1.00;99.90;;;;;;5100315;27;20616;-54
2021/12/26 01:54:44;;;;;;;1.97;1.37;;;-1.00;99.90;;;;;;5099225;28;20321;-55
2021/12/26 01:57:12;;;;;;;2.70;1.90;;;-1.00;99.90;;;;;;5098492;28;20306;-56
2021/12/26 01:59:40;;;;;;;1.83;1.23;;;-0.90;99.90;;;;;;5098595;28;20326;-54
2021/12/26 02:02:09;;;;;;;3.20;1.80;;;-0.80;99.90;;;;;;5099803;27;20223;-56
2021/12/26 02:04:38;;;;;;;3.80;1.50;;;-0.70;99.90;;;;;;5080180;28;20291;-55
2021/12/26 02:07:06;;;;;;;2.83;1.57;;;-0.90;99.90;;;;;;5098396;28;20690;-55
2021/12/26 02:09:33;;;;;;;2.33;1.50;;;-1.00;99.90;;;;;;5100044;28;20194;-54
2021/12/26 02:12:00;;;;;;;4.00;1.63;;;-0.90;99.90;;;;;;5100002;28;20715;-55
2021/12/26 02:14:27;;;;;;;2.70;1.80;;;-0.80;99.90;;;;;;5096237;27;20272;-55
2021/12/26 02:16:54;;;;;;;5.77;1.70;;;-0.90;99.90;;;;;;5097597;27;20238;-55
2021/12/26 02:19:22;;;;;;;2.47;1.70;;;-0.90;99.90;;;;;;5096516;27;20206;-55
2021/12/26 02:25:06;;;;;;;3.13;1.27;;;-1.00;99.90;;;;;;5098058;28;20234;-54
2021/12/26 02:27:33;;;;;;;2.13;1.50;;;-1.00;99.90;;;;;;5099205;27;20211;-54
2021/12/26 02:30:08;;;;;;;4.83;1.90;;;-1.00;99.90;;;;;;5098916;28;20322;-56
2021/12/26 02:32:35;;;;;;;3.93;1.27;;;-1.00;99.90;;;;;;5098836;27;20275;-54
2021/12/26 02:35:03;;;;;;;2.60;1.67;;;-0.90;99.90;;;;;;5096705;28;20226;-54
2021/12/26 02:37:30;;;;;;;2.37;1.70;;;-0.90;99.90;;;;;;5097300;28;20233;-55
2021/12/26 02:39:57;;;;;;;2.50;1.80;;;-0.70;99.90;;;;;;5098513;27;20557;-55
2021/12/26 02:42:24;;;;;;;2.50;1.67;;;-0.80;99.90;;;;;;5097137;28;20210;-53
2021/12/26 02:44:51;;;;;;;2.60;2.00;;;-0.90;99.90;;;;;;5096727;27;20248;-56
2021/12/26 02:47:38;;;;;;;2.50;1.57;;;-0.90;99.90;;;;;;5097800;28;20242;-55
2021/12/26 02:50:16;;;;;;;2.67;1.80;;;-0.80;99.90;;;;;;5096688;28;20499;-55
2021/12/26 02:52:43;;;;;;;3.60;1.60;;;-0.60;99.90;;;;;;5099246;28;20205;-55
2021/12/26 02:55:12;;;;;;;3.03;1.63;;;-0.70;99.90;;;;;;5097788;28;20248;-54
2021/12/26 02:57:39;;;;;;;3.33;1.33;;;-0.60;99.90;;;;;;5097970;28;20256;-54
2021/12/26 03:00:10;;;;;;;3.27;1.50;;;-0.60;99.90;;;;;;5098733;28;20270;-55
2021/12/26 03:02:46;;;;;;;2.73;1.73;;;-0.60;99.90;;;;;;5099334;28;20289;-56
2021/12/26 03:05:14;;;;;;;1.73;1.30;;;-0.80;99.90;;;;;;5096904;28;20203;-55
2021/12/26 03:07:41;;;;;;;5.53;1.70;;;-0.70;99.90;;;;;;5098761;28;20373;-55
2021/12/26 03:10:11;;;;;;;3.33;1.67;;;-0.80;99.90;;;;;;5099029;28;20224;-55
2021/12/26 03:12:42;;;;;;;1.67;1.40;;;-0.80;99.90;;;;;;5100679;28;20310;-56
2021/12/26 03:15:10;;;;;;;4.40;1.73;;;-0.80;99.90;;;;;;5097472;28;20288;-55
2021/12/26 03:17:38;;;;;;;2.33;1.30;;;-0.60;99.90;;;;;;5098426;27;20200;-55
2021/12/26 03:20:13;;;;;;;2.73;1.60;;;-0.70;99.90;;;;;;5096753;28;20194;-54
2021/12/26 03:22:40;;;;;;;2.37;1.57;;;-0.70;99.90;;;;;;5099774;27;20312;-56
2021/12/26 03:25:15;;;;;;;4.30;1.60;;;-0.80;99.90;;;;;;5097852;28;20243;-56
2021/12/26 03:27:43;;;;;;;6.23;2.10;;;-0.60;99.90;;;;;;5097661;28;20221;-55
2021/12/26 03:30:13;;;;;;;2.67;1.40;;;-0.70;99.90;;;;;;5095950;28;20698;-55
2021/12/26 03:32:41;;;;;;;3.83;2.03;;;-0.60;99.90;;;;;;5097691;28;20659;-56
2021/12/26 03:35:09;;;;;;;2.33;1.63;;;-0.80;99.90;;;;;;5098025;28;20643;-54
2021/12/26 03:37:37;;;;;;;2.53;1.90;;;-0.90;99.90;;;;;;5097021;28;20227;-55
2021/12/26 03:40:05;;;;;;;3.33;1.63;;;-0.90;99.90;;;;;;5096810;28;20210;-54
2021/12/26 03:42:32;;;;;;;3.63;1.83;;;-1.10;99.90;;;;;;5097773;28;20802;-56
2021/12/26 03:44:59;;;;;;;2.60;1.83;;;-1.10;99.90;;;;;;5095588;28;20523;-54
2021/12/26 03:47:26;;;;;;;2.93;1.80;;;-0.90;99.90;;;;;;5096490;28;20621;-56
2021/12/26 03:49:53;;;;;;;2.00;1.43;;;-1.00;99.90;;;;;;5095604;28;20289;-54
2021/12/26 03:52:22;;;;;;;2.90;1.47;;;-1.00;99.90;;;;;;5095489;28;20610;-55
2021/12/26 03:54:50;;;;;;;1.77;1.60;;;-1.00;99.90;;;;;;5096356;28;20233;-54
2021/12/26 03:57:16;;;;;;;4.67;1.57;;;-0.90;99.90;;;;;;5093560;28;20226;-55
2021/12/26 03:59:43;;;;;;;2.43;1.53;;;-0.90;99.90;;;;;;5096327;28;20361;-55
2021/12/26 04:02:11;;;;;;;4.57;2.07;;;-0.90;99.90;;;;;;5094887;28;20277;-56
2021/12/26 04:04:38;;;;;;;2.33;1.40;;;-0.80;99.90;;;;;;5095573;28;20286;-55
2021/12/26 04:07:05;;;;;;;2.23;1.50;;;-0.80;99.90;;;;;;5097495;28;20296;-55
2021/12/26 04:09:31;;;;;;;3.20;1.90;;;-0.80;99.90;;;;;;5097150;28;20206;-55
2021/12/26 04:11:58;;;;;;;4.00;1.90;;;-1.00;99.90;;;;;;5096348;28;20617;-54
2021/12/26 04:14:25;;;;;;;2.73;1.57;;;-1.00;99.90;;;;;;5079239;28;20614;-54
2021/12/26 04:16:52;;;;;;;4.20;1.90;;;-1.20;99.90;;;;;;5099347;28;20287;-55
2021/12/26 04:19:19;;;;;;;3.97;1.87;;;-1.20;99.90;;;;;;5097921;28;20643;-53
2021/12/26 04:21:46;;;;;;;2.40;1.80;;;-1.10;99.90;;;;;;5094529;28;20837;-55
2021/12/26 04:24:14;;;;;;;3.27;2.10;;;-1.20;99.90;;;;;;5097253;27;20192;-56
2021/12/26 04:26:41;;;;;;;5.40;1.70;;;-1.30;99.90;;;;;;5096900;28;20715;-51
2021/12/26 04:29:09;;;;;;;4.37;1.93;;;-1.20;99.90;;;;;;5096855;28;20562;-53
2021/12/26 04:31:37;;;;;;;2.90;2.00;;;-1.20;99.90;;;;;;5095993;28;20305;-54
2021/12/26 04:34:04;;;;;;;4.10;1.63;;;-1.30;99.90;;;;;;5094790;28;20230;-51
2021/12/26 04:36:31;;;;;;;3.20;1.57;;;-1.30;99.90;;;;;;5095918;28;20207;-54
2021/12/26 04:38:58;;;;;;;1.87;1.53;;;-1.40;99.90;;;;;;5096338;28;20290;-53
2021/12/26 04:41:25;;;;;;;3.87;1.63;;;-1.40;99.90;;;;;;5096721;28;20202;-55
2021/12/26 04:43:52;;;;;;;2.97;1.63;;;-1.40;99.90;;;;;;5095345;27;20301;-51
2021/12/26 04:46:19;;;;;;;3.07;1.60;;;-1.50;99.90;;;;;;5096677;28;20244;-57
2021/12/26 04:48:46;;;;;;;2.93;1.70;;;-1.50;99.90;;;;;;5093074;27;20234;-55
2021/12/26 04:51:13;;;;;;;5.77;2.00;;;-1.50;99.90;;;;;;5095269;28;20198;-57
2021/12/26 04:53:40;;;;;;;3.10;1.77;;;-1.50;99.90;;;;;;5077003;28;20330;-55
2021/12/26 04:56:08;;;;;;;3.03;1.60;;;-1.50;99.90;;;;;;5095004;28;20238;-56
2021/12/26 04:58:36;;;;;;;3.17;1.73;;;-1.50;99.90;;;;;;5093796;28;20669;-57
2021/12/26 05:01:03;;;;;;;2.30;1.40;;;-1.50;99.90;;;;;;5092358;28;20256;-54
2021/12/26 05:03:31;;;;;;;3.50;1.80;;;-1.50;99.90;;;;;;5095383;28;20585;-56
2021/12/26 05:05:58;;;;;;;2.40;1.80;;;-1.50;99.90;;;;;;5096937;28;21080;-55
2021/12/26 05:08:25;;;;;;;3.03;1.93;;;-1.60;99.90;;;;;;5093260;28;20734;-56
2021/12/26 05:10:52;;;;;;;1.70;1.60;;;-1.60;99.90;;;;;;5091944;28;20254;-56
2021/12/26 05:13:19;;;;;;;3.27;1.63;;;-1.60;99.90;;;;;;5096844;28;20283;-55
2021/12/26 05:15:46;;;;;;;1.60;1.47;;;-1.50;99.90;;;;;;5093133;28;20290;-55
2021/12/26 05:18:13;;;;;;;3.53;2.00;;;-1.60;99.90;;;;;;5095965;28;20220;-55
2021/12/26 05:20:40;;;;;;;3.70;1.80;;;-1.50;99.90;;;;;;5092692;28;20218;-55
2021/12/26 05:23:07;;;;;;;4.47;1.97;;;-1.40;99.90;;;;;;5095117;28;20230;-57
2021/12/26 05:25:34;;;;;;;3.37;1.57;;;-1.20;99.90;;;;;;5094492;28;20290;-57
2021/12/26 05:28:00;;;;;;;3.80;2.30;;;-1.40;99.90;;;;;;5077516;28;20217;-56
2021/12/26 05:30:28;;;;;;;3.63;1.93;;;-1.50;99.90;;;;;;5078817;28;20731;-57
2021/12/26 05:32:55;;;;;;;6.03;2.20;;;-1.50;99.90;;;;;;5096625;28;20246;-54
2021/12/26 05:35:22;;;;;;;3.97;1.90;;;-1.60;99.90;;;;;;5094121;28;20222;-57
2021/12/26 05:37:49;;;;;;;2.83;1.73;;;-1.40;99.90;;;;;;5094421;28;21953;-57
2021/12/26 05:40:16;;;;;;;2.90;1.80;;;-1.50;99.90;;;;;;5095913;28;20248;-56
2021/12/26 05:42:43;;;;;;;2.10;1.60;;;-1.40;99.90;;;;;;5095687;28;20298;-57
2021/12/26 05:45:11;;;;;;;3.10;1.70;;;-1.50;99.90;;;;;;5096025;28;20306;-57
2021/12/26 05:47:38;;;;;;;2.63;1.60;;;-1.60;99.90;;;;;;5095579;28;20234;-55
2021/12/26 05:50:07;;;;;;;3.03;1.40;;;-1.70;99.90;;;;;;5094534;28;20232;-54
2021/12/26 05:52:34;;;;;;;3.37;1.70;;;-1.70;99.90;;;;;;5097257;28;20617;-57
2021/12/26 05:55:01;;;;;;;3.27;2.10;;;-1.70;99.90;;;;;;5096934;28;20198;-52
2021/12/26 05:57:28;;;;;;;3.97;1.80;;;-1.80;99.90;;;;;;5095559;28;20234;-56
2021/12/26 05:59:54;;;;;;;4.00;2.27;;;-1.80;99.90;;;;;;5097021;28;20643;-56
2021/12/26 06:02:21;;;;;;;2.83;1.90;;;-1.80;99.90;;;;;;5096307;28;20246;-54
2021/12/26 06:04:48;;;;;;;2.40;1.80;;;-1.80;99.90;;;;;;5096639;28;20228;-53
2021/12/26 06:07:16;;;;;;;2.10;1.50;;;-1.80;99.90;;;;;;5096334;28;21146;-51
2021/12/26 06:09:43;;;;;;;3.57;1.50;;;-1.70;99.90;;;;;;5096686;28;20194;-55
2021/12/26 06:12:10;;;;;;;2.80;2.00;;;-1.70;99.90;;;;;;5096561;28;20195;-54
2021/12/26 06:14:37;;;;;;;3.13;1.80;;;-1.70;99.90;;;;;;5095076;28;20281;-54
2021/12/26 06:17:04;;;;;;;2.63;1.77;;;-1.60;99.90;;;;;;5076861;28;20666;-54
2021/12/26 06:19:31;;;;;;;2.60;1.90;;;-1.80;99.90;;;;;;5093356;28;20665;-53
2021/12/26 06:21:58;;;;;;;2.27;1.70;;;-1.90;99.90;;;;;;5097137;28;20248;-50
2021/12/26 06:24:25;;;;;;;2.40;1.70;;;-1.90;99.90;;;;;;5079100;28;20226;-55
2021/12/26 06:26:52;;;;;;;2.73;1.87;;;-2.00;99.90;;;;;;5095533;28;20214;-55
2021/12/26 06:29:19;;;;;;;3.77;2.30;;;-1.90;99.90;;;;;;5101672;28;20578;-53
2021/12/26 06:31:46;;;;;;;5.17;1.80;;;-1.90;99.90;;;;;;5101982;28;20608;-52
2021/12/26 06:34:14;;;;;;;2.50;1.87;;;-1.90;99.90;;;;;;5100254;28;20195;-60
2021/12/26 06:36:41;;;;;;;2.27;1.70;;;-1.80;99.90;;;;;;5101852;28;20206;-56
2021/12/26 06:39:08;;;;;;;1.93;1.70;;;-1.70;99.90;;;;;;5102125;28;20241;-58
2021/12/26 06:41:38;;;;;;;3.07;1.80;;;-1.70;99.90;;;;;;5098625;28;20247;-56
2021/12/26 06:44:07;;;;;;;3.37;2.00;;;-1.70;99.90;;;;;;5100240;28;20196;-57
2021/12/26 06:46:35;;;;;;;2.63;2.00;;;-1.80;99.90;;;;;;5098505;28;20222;-55
2021/12/26 06:49:04;;;;;;;4.10;2.03;;;-1.80;99.90;;;;;;5101814;28;20282;-55
2021/12/26 06:51:31;;;;;;;3.67;1.80;;;-1.80;99.90;;;;;;5102601;28;20194;-55
2021/12/26 06:53:59;;;;;;;4.87;1.90;;;-1.80;99.90;;;;;;5102980;28;20233;-56
2021/12/26 06:56:25;;;;;;;3.43;2.20;;;-1.90;99.90;;;;;;5103157;28;20232;-56
2021/12/26 06:58:53;;;;;;;4.17;1.87;;;-1.90;99.90;;;;;;5100315;28;20321;-54
2021/12/26 07:01:20;;;;;;;4.20;2.87;;;-2.00;99.90;;;;;;5095835;28;20653;-54
2021/12/26 07:03:47;;;;;;;3.33;1.97;;;-2.00;99.90;;;;;;5081132;28;20259;-55
2021/12/26 07:06:17;;;;;;;2.67;1.87;;;-2.00;99.90;;;;;;5098824;28;20194;-55
2021/12/26 07:08:44;;;;;;;2.83;2.03;;;-2.00;99.90;;;;;;5100702;28;20236;-54
2021/12/26 07:11:11;;;;;;;3.77;2.00;;;-2.00;99.90;;;;;;5098977;28;20221;-55
2021/12/26 07:13:38;;;;;;;5.17;2.20;;;-2.00;99.90;;;;;;5100022;27;20226;-54
2021/12/26 07:16:05;;;;;;;4.67;2.20;;;-2.00;99.90;;;;;;5099219;28;20284;-53
2021/12/26 07:18:31;;;;;;;2.53;1.87;;;-2.00;99.90;;;;;;5079563;28;20199;-53
2021/12/26 07:20:58;;;;;;;2.43;1.90;;;-2.10;99.90;;;;;;5099500;28;20595;-54
2021/12/26 07:23:25;;;;;;;3.17;1.83;;;-2.10;99.90;;;;;;5100131;28;20294;-53
2021/12/26 07:25:52;;;;;;;3.37;2.00;;;-2.10;99.90;;;;;;5098860;27;20198;-53
2021/12/26 07:28:19;;;;;;;3.93;1.93;;;-2.00;99.90;;;;;;5098852;28;20217;-51
2021/12/26 07:30:46;;;;;;;3.03;1.90;;;-2.10;99.90;;;;;;5099934;27;20278;-55
2021/12/26 07:33:13;;;;;;;2.33;1.63;;;-2.00;99.90;;;;;;5098922;28;20198;-54
2021/12/26 07:35:39;;;;;;;4.43;1.73;;;-2.00;99.90;;;;;;5098674;28;20272;-53
2021/12/26 07:38:06;;;;;;;4.17;2.20;;;-2.10;99.90;;;;;;5065054;28;21159;-51
2021/12/26 07:40:33;;;;;;;3.17;2.13;;;-2.10;99.90;;;;;;5098234;28;20248;-52
2021/12/26 07:43:00;;;;;;;5.97;2.30;;;-2.10;99.90;;;;;;5096053;28;20207;-55
2021/12/26 07:45:27;;;;;;;3.73;2.10;;;-2.10;99.90;;;;;;5079271;28;20765;-52
2021/12/26 07:47:54;;;;;;;3.07;2.00;;;-2.10;99.90;;;;;;5098843;28;20291;-55
2021/12/26 07:50:21;;;;;;;2.57;2.13;;;-2.20;99.90;;;;;;5083208;28;20591;-54
2021/12/26 07:52:49;;;;;;;3.07;2.00;;;-2.10;99.90;;;;;;5080081;28;20284;-53
2021/12/26 07:55:16;;;;;;;2.83;2.00;;;-2.10;99.90;;;;;;5078255;28;20836;-51
2021/12/26 07:57:50;;;;;;;2.67;2.13;;;-2.10;99.90;;;;;;5095697;28;20233;-55
2021/12/26 08:00:19;;;;;;;2.87;2.03;;;-2.10;99.90;;;;;;5097273;28;20232;-51
2021/12/26 08:02:46;;;;;;;2.50;2.00;;;-2.00;99.90;;;;;;5098110;28;20293;-52
2021/12/26 08:05:15;;;;;;;3.53;2.43;;;-2.00;99.90;;;;;;5096636;28;20755;-50
2021/12/26 08:07:42;;;;;;;4.33;2.20;;;-2.10;99.90;;;;;;5096680;28;20337;-54
2021/12/26 08:10:10;;;;;;;3.20;1.83;;;-2.10;99.90;;;;;;5097997;28;20259;-55
2021/12/26 08:12:39;;;;;;;2.27;1.77;;;-2.10;99.90;;;;;;5098841;28;20202;-52
2021/12/26 08:15:07;;;;;;;4.20;2.60;;;-2.10;99.90;;;;;;5096658;28;20285;-53
2021/12/26 08:17:35;;;;;;;2.80;1.77;;;-2.00;99.90;;;;;;5078403;27;20236;-55
2021/12/26 08:20:03;;;;;;;2.87;1.90;;;-2.00;99.90;;;;;;5096352;28;20625;-52
2021/12/26 08:22:31;;;;;;;2.67;1.93;;;-2.00;99.90;;;;;;5098237;28;20194;-54
2021/12/26 08:24:57;;;;;;;4.10;1.73;;;-2.00;99.90;;;;;;5100769;28;20224;-53
2021/12/26 08:27:24;;;;;;;4.00;2.53;;;-1.90;99.90;;;;;;5098578;27;20848;-53
2021/12/26 08:29:51;;;;;;;4.03;2.13;;;-1.90;99.90;;;;;;5096248;27;20225;-53
2021/12/26 08:32:19;;;;;;;2.43;1.97;;;-1.90;99.90;;;;;;5099434;28;20227;-51
2021/12/26 08:34:46;;;;;;;3.83;2.40;;;-1.90;99.90;;;;;;5097450;28;20191;-51
2021/12/26 08:37:14;;;;;;;2.70;1.73;;;-1.80;99.90;;;;;;5096311;28;20202;-54
2021/12/26 08:39:43;;;;;;;3.37;2.10;;;-1.80;99.90;;;;;;5097627;28;20233;-51
2021/12/26 08:42:12;;;;;;;3.53;1.73;;;-1.80;99.90;;;;;;5096068;27;20292;-52
2021/12/26 08:44:40;;;;;;;2.53;2.07;;;-1.90;99.90;;;;;;5096096;27;20313;-52
2021/12/26 08:47:09;;;;;;;2.60;1.70;;;-1.90;99.90;;;;;;5094648;27;20245;-53
2021/12/26 08:49:36;;;;;;;5.53;2.20;;;-1.80;99.90;;;;;;5094483;28;20229;-54
2021/12/26 08:52:05;;;;;;;4.13;2.13;;;-1.80;99.90;;;;;;5095221;28;20313;-53
2021/12/26 08:54:33;;;;;;;3.07;2.07;;;-1.80;99.90;;;;;;5096174;28;20597;-53
2021/12/26 08:57:05;;;;;;;6.77;2.00;;;-1.80;99.90;;;;;;5099209;28;20195;-55
2021/12/26 08:59:32;;;;;;;4.23;2.47;;;-1.70;99.90;;;;;;5097436;28;20214;-55
2021/12/26 09:02:02;;;;;;;3.03;2.13;;;-1.80;99.90;;;;;;5096995;28;20209;-53
2021/12/26 09:04:30;;;;;;;3.27;2.23;;;-1.80;99.90;;;;;;5096900;28;20198;-53
2021/12/26 09:09:32;;;;;;;3.07;2.27;;;-1.60;99.90;;;;;;5035695;28;20595;-80
2021/12/26 09:11:59;;;;;;;3.13;2.27;;;-1.60;99.90;;;;;;5043557;28;20227;-80
2021/12/26 09:14:31;;;;;;;5.67;3.40;;;-1.50;99.90;;;;;;5039808;22;20195;-65
2021/12/26 09:16:59;;;;;;;3.43;2.40;;;-1.50;99.90;;;;;;5053131;28;20554;-61
2021/12/26 09:19:28;;;;;;;2.80;2.37;;;-1.50;99.90;;;;;;5036430;28;20553;-62
2021/12/26 09:21:57;;;;;;;3.33;2.40;;;-1.50;99.90;;;;;;5025659;28;20919;-62
2021/12/26 09:24:23;;;;;;;4.27;2.43;;;-1.50;99.90;;;;;;5056976;28;20228;-62
2021/12/26 09:26:51;;;;;;;6.00;2.67;;;-1.50;99.90;;;;;;5056581;28;20658;-59
2021/12/26 09:29:18;;;;;;;4.47;2.50;;;-1.40;99.90;;;;;;5055275;28;20470;-62
2021/12/26 09:31:46;;;;;;;5.43;2.57;;;-1.30;99.90;;;;;;5057611;28;20623;-63
2021/12/26 09:34:13;;;;;;;3.37;2.60;;;-1.30;99.90;;;;;;5021339;28;20294;-61
2021/12/26 09:36:41;;;;;;;4.30;3.00;;;-1.30;99.90;;;;;;5038635;28;20872;-62
2021/12/26 09:39:09;;;;;;;2.70;2.17;;;-1.30;99.90;;;;;;5058151;28;20287;-61
2021/12/26 09:41:37;;;;;;;3.80;2.70;;;-1.30;99.90;;;;;;5058248;28;20295;-60
2021/12/26 09:44:05;;;;;;;5.77;2.60;;;-1.30;99.90;;;;;;5056930;28;20290;-63
2021/12/26 09:46:33;;;;;;;5.30;3.17;;;-1.10;99.90;;;;;;5057312;28;21093;-60
2021/12/26 09:49:00;;;;;;;5.17;3.10;;;-1.10;99.90;;;;;;5053467;28;20212;-60
2021/12/26 09:51:27;;;;;;;3.53;2.80;;;-1.00;99.90;;;;;;5039779;28;21065;-61
2021/12/26 09:53:54;;;;;;;4.40;2.27;;;-1.10;99.90;;;;;;5038578;28;20200;-60
2021/12/26 09:56:26;;;;;;;4.03;2.83;;;-0.90;99.90;;;;;;5057455;28;20192;-63
2021/12/26 09:59:06;;;;;;;3.70;2.70;;;-0.80;99.90;;;;;;5054946;28;20694;-60
2021/12/26 10:01:40;;;;;;;5.87;2.80;;;-0.70;99.90;;;;;;5056962;28;20218;-63
2021/12/26 10:04:19;;;;;;;4.53;3.03;;;-0.60;99.90;;;;;;5058720;28;20221;-61
2021/12/26 10:06:49;;;;;;;4.03;3.23;;;-0.50;99.90;;;;;;5060379;28;20203;-62
2021/12/26 10:09:18;;;;;;;4.57;3.23;;;-0.50;99.90;;;;;;5059501;28;20301;-57
2021/12/26 10:11:48;;;;;;;4.43;2.73;;;-0.50;99.90;;;;;;5060396;28;20689;-64
2021/12/26 10:14:22;;;;;;;4.80;3.10;;;-0.50;99.90;;;;;;5059311;28;20360;-63
2021/12/26 10:17:04;;;;;;;4.13;3.30;;;-0.40;99.90;;;;;;5057694;28;20236;-61
2021/12/26 10:19:39;;;;;;;7.13;2.93;;;-0.30;99.90;;;;;;5058773;28;20200;-61
2021/12/26 10:22:10;;;;;;;4.67;2.97;;;-0.30;99.90;;;;;;5058949;28;20212;-61
2021/12/26 10:24:42;;;;;;;5.60;3.13;;;-0.50;99.90;;;;;;5059969;28;20635;-61
2021/12/26 10:27:14;;;;;;;3.33;3.03;;;-0.40;99.90;;;;;;5059099;28;20600;-61
2021/12/26 10:29:51;;;;;;;4.97;3.20;;;-0.40;99.90;;;;;;5058773;28;20196;-64
2021/12/26 10:32:33;;;;;;;6.30;3.13;;;-0.30;99.90;;;;;;5058416;28;21144;-60
2021/12/26 10:35:11;;;;;;;4.37;3.07;;;-0.20;99.90;;;;;;5057746;28;20647;-64
2021/12/26 10:37:45;;;;;;;5.47;3.27;;;0.00;99.90;;;;;;5059055;28;20734;-60
2021/12/26 10:40:19;;;;;;;4.63;3.10;;;0.10;99.90;;;;;;5060841;28;20244;-62
2021/12/26 10:42:53;;;;;;;6.87;3.50;;;0.10;99.90;;;;;;5065234;28;20207;-61
2021/12/26 10:45:31;;;;;;;4.87;3.53;;;0.10;99.90;;;;;;5059267;28;20294;-61
2021/12/26 10:48:04;;;;;;;4.70;3.23;;;0.10;99.90;;;;;;5059805;28;20211;-61
2021/12/26 10:50:36;;;;;;;6.20;3.57;;;0.10;99.90;;;;;;5058323;28;20193;-64
2021/12/26 10:53:07;;;;;;;6.57;4.00;;;0.10;99.90;;;;;;5060865;28;20259;-62
2021/12/26 10:55:47;;;;;;;5.47;3.63;;;0.20;99.90;;;;;;5060331;28;20284;-62
2021/12/26 10:58:21;;;;;;;6.57;3.60;;;0.30;99.90;;;;;;5062826;28;20208;-61
2021/12/26 11:00:52;;;;;;;5.07;3.50;;;0.40;99.90;;;;;;5058237;28;20203;-60
2021/12/26 11:03:25;;;;;;;5.53;3.70;;;0.30;99.90;;;;;;5058602;28;20494;-61
2021/12/26 11:05:55;;;;;;;4.83;3.43;;;0.40;99.90;;;;;;5058515;28;20209;-61
2021/12/26 11:08:29;;;;;;;5.77;3.47;;;0.30;99.90;;;;;;5073257;28;20258;-59
2021/12/26 11:10:59;;;;;;;5.13;3.77;;;0.40;99.90;;;;;;5061081;28;20211;-60
2021/12/26 11:13:28;;;;;;;7.67;4.10;;;0.50;99.90;;;;;;5059194;28;20196;-61
2021/12/26 11:15:58;;;;;;;5.60;3.70;;;0.50;99.90;;;;;;5059152;28;20628;-61
2021/12/26 11:18:26;;;;;;;5.70;3.30;;;0.50;99.90;;;;;;5059721;28;20248;-59
2021/12/26 11:21:08;;;;;;;6.43;4.07;;;0.40;99.90;;;;;;5058144;28;20316;-61
2021/12/26 11:23:40;;;;;;;6.10;3.70;;;0.50;99.90;;;;;;5059058;28;20199;-62
2021/12/26 11:26:10;;;;;;;5.87;4.13;;;0.50;99.90;;;;;;5057660;28;20269;-61
2021/12/26 11:28:40;;;;;;;6.17;3.80;;;0.40;99.90;;;;;;5056440;28;20295;-61
2021/12/26 11:31:17;;;;;;;8.00;4.43;;;0.50;99.90;;;;;;5057218;28;20293;-65
2021/12/26 11:33:45;;;;;;;7.13;4.20;;;0.50;99.90;;;;;;5049648;28;20258;-67
2021/12/26 11:36:12;;;;;;;5.03;3.77;;;0.70;99.90;;;;;;5058139;28;20224;-62
2021/12/26 11:38:41;;;;;;;5.37;4.03;;;0.80;99.90;;;;;;5056307;28;20641;-61
2021/12/26 11:41:20;;;;;;;5.33;4.00;;;0.70;99.90;;;;;;5055532;28;20208;-66
2021/12/26 11:43:56;;;;;;;5.83;3.93;;;0.80;99.90;;;;;;5056089;28;20206;-59
2021/12/26 11:46:29;;;;;;;6.33;3.93;;;0.80;99.90;;;;;;5068558;28;20240;-61
2021/12/26 11:49:25;;;;;;;6.87;4.57;;;0.90;99.90;;;;;;5054589;28;20224;-62
2021/12/26 11:51:58;;;;;;;6.90;4.73;;;0.90;99.90;;;;;;5058292;28;20225;-59
2021/12/26 11:54:36;;;;;;;6.93;4.33;;;0.90;99.90;;;;;;5063254;28;20790;-62
2021/12/26 11:57:31;;;;;;;8.53;4.23;;;0.90;99.90;;;;;;5057650;28;20241;-60
2021/12/26 12:00:05;;;;;;;5.63;4.30;;;0.90;99.90;;;;;;5056458;28;20284;-59
2021/12/26 12:02:55;;;;;;;9.27;4.73;;;1.00;99.90;;;;;;5061816;28;20196;-57
2021/12/26 12:05:28;;;;;;;6.73;4.33;;;0.90;99.90;;;;;;5057585;28;20626;-61
2021/12/26 12:08:01;;;;;;;6.83;5.07;;;1.00;99.90;;;;;;5054873;28;20307;-59
2021/12/26 12:10:52;;;;;;;5.67;4.10;;;1.00;99.90;;;;;;5050473;28;21176;-61
2021/12/26 12:13:22;;;;;;;7.17;4.90;;;1.00;99.90;;;;;;5053820;28;20203;-61
2021/12/26 12:16:04;;;;;;;6.03;4.43;;;1.10;99.90;;;;;;5057853;28;20244;-61
2021/12/26 12:18:32;;;;;;;7.27;4.67;;;1.20;99.90;;;;;;5053755;28;20339;-60
2021/12/26 12:21:34;;;;;;;8.07;4.97;;;1.20;99.90;;;;;;5055404;28;21771;-62
2021/12/26 12:24:17;;;;;;;6.03;4.37;;;1.10;99.90;;;;;;5053464;28;20307;-61
2021/12/26 12:26:48;;;;;;;7.80;4.40;;;1.10;99.90;;;;;;5057429;28;20211;-62
2021/12/26 12:29:48;;;;;;;11.03;5.70;;;1.10;99.90;;;;;;5053719;28;20227;-58
2021/12/26 12:32:18;;;;;;;5.23;4.23;;;1.20;99.90;;;;;;5051146;28;20216;-61
2021/12/26 12:34:46;;;;;;;7.70;5.33;;;1.30;99.90;;;;;;5054045;28;20213;-58
2021/12/26 12:37:40;;;;;;;7.23;4.87;;;1.40;99.90;;;;;;5048464;28;20294;-56
2021/12/26 12:40:12;;;;;;;6.87;4.70;;;1.20;99.90;;;;;;5044541;28;20248;-60
2021/12/26 12:42:42;;;;;;;7.53;5.23;;;1.20;99.90;;;;;;5052101;28;20288;-62
2021/12/26 12:45:10;;;;;;;7.13;4.97;;;1.20;99.90;;;;;;5048390;28;20290;-60
2021/12/26 12:47:37;;;;;;;8.30;4.93;;;1.20;99.90;;;;;;5052217;28;20705;-60
2021/12/26 12:50:04;;;;;;;8.27;5.10;;;1.20;99.90;;;;;;5049698;28;20290;-61
2021/12/26 12:52:44;;;;;;;6.87;4.90;;;1.30;99.90;;;;;;5053984;28;20743;-58
2021/12/26 12:55:21;;;;;;;6.57;4.30;;;1.20;99.90;;;;;;5057034;28;20323;-59
2021/12/26 12:57:50;;;;;;;8.63;4.80;;;1.30;99.90;;;;;;5054831;28;20283;-61
2021/12/26 13:00:26;;;;;;;9.20;5.30;;;1.30;99.90;;;;;;5051998;28;20283;-59
2021/12/26 13:02:59;;;;;;;7.83;5.53;;;1.20;99.90;;;;;;5057253;28;20704;-61
2021/12/26 13:05:32;;;;;;;9.07;5.43;;;1.30;99.90;;;;;;5052108;28;20679;-61